Time;durP1;ratioP1;P1;durP2;ratioP2;P2;SDS_P1;SDS_P2;PMS_P1;PMS_P2;Temp;Humidity;BMP_temperature;BMP_pressure;BME280_temperature;BME280_humidity;BME280_pressure;Samples;Min_cycle;Max_cycle;Signal;HPM_P1;HPM_P2
2022/11/01 00:02:02;;;;;;;11.50;8.70;;;11.80;99.90;;;;;;6227229;23;20152;-92
2022/11/01 00:04:28;;;;;;;9.90;8.90;;;11.80;99.90;;;;;;6233010;23;20156;-95
2022/11/01 00:06:54;;;;;;;9.90;8.90;;;11.80;99.90;;;;;;6241779;23;20163;-93
2022/11/01 00:09:20;;;;;;;10.23;9.10;;;11.80;99.90;;;;;;6239121;23;20189;-95
2022/11/01 00:11:46;;;;;;;11.77;9.37;;;11.70;99.90;;;;;;6261434;23;20147;-93
2022/11/01 00:14:14;;;;;;;11.57;9.20;;;11.70;99.90;;;;;;6236623;23;20224;-96
2022/11/01 00:16:41;;;;;;;9.73;8.73;;;11.80;99.90;;;;;;6238767;23;20152;-95
2022/11/01 00:19:08;;;;;;;10.07;8.37;;;11.80;99.90;;;;;;6240341;23;20245;-96
2022/11/01 00:21:34;;;;;;;9.87;8.87;;;11.80;99.90;;;;;;6216001;23;20250;-94
2022/11/01 00:24:00;;;;;;;10.60;9.17;;;11.70;99.90;;;;;;6259672;23;20148;-94
2022/11/01 00:26:26;;;;;;;10.83;9.07;;;11.80;99.90;;;;;;6233899;23;20614;-91
2022/11/01 00:28:54;;;;;;;11.33;10.10;;;11.80;99.90;;;;;;6233010;23;20156;-96
2022/11/01 00:31:20;;;;;;;10.90;9.80;;;11.70;99.90;;;;;;6230004;23;20162;-93
2022/11/01 00:33:47;;;;;;;13.00;10.20;;;11.70;99.90;;;;;;6230068;23;20156;-92
2022/11/01 00:36:13;;;;;;;12.17;10.17;;;11.70;99.90;;;;;;6229998;23;20152;-93
2022/11/01 00:38:41;;;;;;;13.43;10.77;;;11.80;99.90;;;;;;6231477;23;20198;-93
2022/11/01 00:41:08;;;;;;;14.20;10.97;;;11.80;99.90;;;;;;6260439;23;20565;-92
2022/11/01 00:43:35;;;;;;;13.50;10.80;;;11.80;99.90;;;;;;6260497;23;20176;-91
2022/11/01 00:46:02;;;;;;;15.37;10.73;;;11.80;99.90;;;;;;6230989;23;20158;-94
2022/11/01 00:48:28;;;;;;;16.93;12.03;;;11.70;99.90;;;;;;6259412;23;20154;-96
2022/11/01 00:50:56;;;;;;;14.10;11.00;;;11.70;99.90;;;;;;6206354;23;20166;-93
2022/11/01 00:53:22;;;;;;;14.53;9.40;;;11.70;99.90;;;;;;6233650;23;20155;-93
2022/11/01 00:55:48;;;;;;;10.57;9.03;;;11.70;99.90;;;;;;6242905;23;20200;-93
2022/11/01 00:58:22;;;;;;;9.73;8.77;;;11.70;99.90;;;;;;6221888;23;20206;-92
2022/11/01 01:00:50;;;;;;;9.17;8.23;;;11.70;99.90;;;;;;6243853;23;20207;-92
2022/11/01 01:03:17;;;;;;;9.57;8.57;;;11.70;99.90;;;;;;6219887;23;20201;-92
2022/11/01 01:05:43;;;;;;;9.47;8.57;;;11.70;99.90;;;;;;6267138;23;20147;-96
2022/11/01 01:08:10;;;;;;;13.13;8.40;;;11.70;99.90;;;;;;6233783;23;20224;-96
2022/11/01 01:10:38;;;;;;;14.10;9.13;;;11.70;99.90;;;;;;6232078;23;20266;-95
2022/11/01 01:13:04;;;;;;;10.40;9.30;;;11.70;99.90;;;;;;6229246;23;20166;-96
2022/11/01 01:15:30;;;;;;;9.80;8.57;;;11.60;99.90;;;;;;6237470;23;20161;-96
2022/11/01 01:17:56;;;;;;;10.50;8.47;;;11.60;99.90;;;;;;6245278;23;20144;-95
2022/11/01 01:20:22;;;;;;;11.67;8.47;;;11.70;99.90;;;;;;6244187;23;20148;-96
2022/11/01 01:22:48;;;;;;;9.80;8.80;;;11.60;99.90;;;;;;6187155;23;20179;-95
2022/11/01 01:25:15;;;;;;;12.60;8.33;;;11.60;99.90;;;;;;6230844;23;20160;-95
2022/11/01 01:27:41;;;;;;;10.13;8.57;;;11.60;99.90;;;;;;6233491;23;20144;-95
2022/11/01 01:30:08;;;;;;;9.87;8.80;;;11.70;99.90;;;;;;6239594;23;20179;-96
2022/11/01 01:32:34;;;;;;;9.60;8.60;;;11.60;99.90;;;;;;6238133;23;20144;-96
2022/11/01 01:35:03;;;;;;;10.97;7.70;;;11.70;99.90;;;;;;6211809;23;20186;-94
2022/11/01 01:37:29;;;;;;;9.83;8.83;;;11.60;99.90;;;;;;6237264;23;20209;-91
2022/11/01 01:39:55;;;;;;;8.97;8.07;;;11.60;99.90;;;;;;6236433;23;20189;-93
2022/11/01 01:42:33;;;;;;;8.47;7.53;;;11.70;99.90;;;;;;6234416;23;20154;-96
2022/11/01 01:44:59;;;;;;;8.80;7.97;;;11.50;99.90;;;;;;6236402;23;20170;-93
2022/11/01 01:47:28;;;;;;;9.57;7.23;;;11.50;99.90;;;;;;6235498;23;20155;-95
2022/11/01 01:50:15;;;;;;;8.00;7.30;;;11.50;99.90;;;;;;6232678;23;20231;-92
2022/11/01 01:53:14;;;;;;;11.07;7.60;;;11.50;99.90;;;;;;6237630;23;20151;-92
2022/11/01 01:55:55;;;;;;;9.23;7.63;;;11.40;99.90;;;;;;6221241;23;20159;-91
2022/11/01 01:58:26;;;;;;;9.00;8.10;;;11.50;99.90;;;;;;6229802;23;20193;-96
2022/11/01 02:00:53;;;;;;;10.77;9.10;;;11.40;99.90;;;;;;6225358;23;20599;-91
2022/11/01 02:03:23;;;;;;;12.17;8.47;;;11.40;99.90;;;;;;6218854;23;20234;-91
2022/11/01 02:05:54;;;;;;;11.90;9.40;;;11.40;99.90;;;;;;6217048;23;20152;-92
2022/11/01 02:08:26;;;;;;;11.37;10.07;;;11.40;99.90;;;;;;6223145;23;20283;-95
2022/11/01 02:10:59;;;;;;;10.07;8.30;;;11.40;99.90;;;;;;6229395;23;20127;-91
2022/11/01 02:13:28;;;;;;;8.63;7.83;;;11.40;99.90;;;;;;6231820;23;20155;-92
2022/11/01 02:16:31;;;;;;;8.57;7.67;;;11.50;99.90;;;;;;6225420;23;20163;-93
2022/11/01 02:19:31;;;;;;;7.97;7.17;;;11.50;99.90;;;;;;6225160;23;20190;-94
2022/11/01 02:22:15;;;;;;;7.90;7.13;;;11.50;99.90;;;;;;6222497;23;20527;-94
2022/11/01 02:25:22;;;;;;;7.50;6.83;;;11.50;99.90;;;;;;6222745;23;20159;-94
2022/11/01 02:28:25;;;;;;;9.67;8.30;;;11.40;99.90;;;;;;6212232;23;20227;-92
2022/11/01 02:31:01;;;;;;;10.03;8.30;;;11.30;99.90;;;;;;6226276;23;20156;-94
2022/11/01 02:33:38;;;;;;;9.47;8.47;;;11.40;99.90;;;;;;6223876;23;20171;-93
2022/11/01 02:36:16;;;;;;;10.27;8.63;;;11.30;99.90;;;;;;6224179;23;20132;-96
2022/11/01 02:38:51;;;;;;;12.33;8.70;;;11.30;99.90;;;;;;6238165;23;20175;-95
2022/11/01 02:41:24;;;;;;;9.77;8.60;;;11.30;99.90;;;;;;6243365;23;20140;-95
2022/11/01 02:44:02;;;;;;;9.63;8.63;;;11.30;99.90;;;;;;6239987;23;20148;-92
2022/11/01 02:49:19;;;;;;;10.90;8.70;;;11.30;99.90;;;;;;6224916;23;20150;-94
2022/11/01 02:51:45;;;;;;;11.37;8.80;;;11.40;99.90;;;;;;6223614;23;20651;-96
2022/11/01 02:54:21;;;;;;;11.97;9.37;;;11.40;99.90;;;;;;6242702;23;20179;-94
2022/11/01 02:56:47;;;;;;;12.37;10.17;;;11.30;99.90;;;;;;6235728;23;20163;-93
2022/11/01 02:59:23;;;;;;;13.50;9.67;;;11.40;99.90;;;;;;6222797;23;20217;-92
2022/11/01 03:02:07;;;;;;;13.17;9.67;;;11.40;99.90;;;;;;6221515;23;20147;-96
2022/11/01 03:04:35;;;;;;;11.33;8.83;;;11.40;99.90;;;;;;6242587;23;20135;-96
2022/11/01 03:07:08;;;;;;;10.23;8.90;;;11.40;99.90;;;;;;6244307;23;20185;-96
2022/11/01 03:09:35;;;;;;;13.13;10.80;;;11.40;99.90;;;;;;6232769;23;20638;-96
2022/11/01 03:12:24;;;;;;;11.63;9.67;;;11.40;99.90;;;;;;6255859;23;20155;-96
2022/11/01 03:15:19;;;;;;;10.70;9.20;;;11.40;99.90;;;;;;6232762;23;20219;-96
2022/11/01 03:18:03;;;;;;;11.30;9.33;;;11.40;99.90;;;;;;6260184;23;20134;-96
2022/11/01 03:20:49;;;;;;;11.93;9.93;;;11.40;99.90;;;;;;6210821;23;20159;-95
2022/11/01 03:23:36;;;;;;;12.33;9.87;;;11.40;99.90;;;;;;6230990;23;20162;-96
2022/11/01 03:26:07;;;;;;;12.20;9.53;;;11.40;99.90;;;;;;6229778;23;20216;-96
2022/11/01 03:28:38;;;;;;;12.30;9.57;;;11.40;99.90;;;;;;6232577;23;20155;-95
2022/11/01 03:31:15;;;;;;;11.73;9.30;;;11.40;99.90;;;;;;6236760;23;20151;-94
2022/11/01 03:34:00;;;;;;;13.57;10.30;;;11.40;99.90;;;;;;6268051;22;20143;-96
2022/11/01 03:36:31;;;;;;;14.80;10.33;;;11.30;99.90;;;;;;6265208;23;20135;-93
2022/11/01 03:39:33;;;;;;;12.43;9.67;;;11.30;99.90;;;;;;6239763;23;20183;-96
2022/11/01 03:42:06;;;;;;;11.47;9.50;;;11.40;99.90;;;;;;6115847;23;20162;-96
2022/11/01 03:44:36;;;;;;;13.73;10.33;;;11.40;99.90;;;;;;6130418;23;20157;-92
2022/11/01 03:47:03;;;;;;;16.27;10.30;;;11.40;99.90;;;;;;6128451;23;20161;-94
2022/11/01 03:49:29;;;;;;;12.83;10.43;;;11.30;99.90;;;;;;6127985;23;20244;-94
2022/11/01 03:51:55;;;;;;;14.90;10.73;;;11.30;99.90;;;;;;6129435;23;20161;-93
2022/11/01 03:54:20;;;;;;;14.03;10.83;;;11.30;99.90;;;;;;6130204;23;20168;-92
2022/11/01 03:56:46;;;;;;;15.70;11.67;;;11.30;99.90;;;;;;6130898;23;20258;-96
2022/11/01 03:59:12;;;;;;;16.00;10.57;;;11.30;99.90;;;;;;6133235;23;20193;-96
2022/11/01 04:01:38;;;;;;;14.83;11.20;;;11.30;99.90;;;;;;6132530;23;20152;-93
2022/11/01 04:04:07;;;;;;;15.20;10.83;;;11.30;99.90;;;;;;6134362;23;20197;-96
2022/11/01 04:06:33;;;;;;;15.67;11.07;;;11.30;99.90;;;;;;6108800;23;20162;-95
2022/11/01 04:08:58;;;;;;;13.33;10.17;;;11.30;99.90;;;;;;6134159;23;20231;-96
2022/11/01 04:11:24;;;;;;;13.77;10.17;;;11.40;99.90;;;;;;6137044;23;20156;-94
2022/11/01 04:13:50;;;;;;;14.23;10.07;;;11.40;99.90;;;;;;6117293;23;20168;-93
2022/11/01 04:21:46;;;;;;;14.03;9.83;;;11.40;99.90;;;;;;6241978;23;20201;-92
2022/11/01 04:24:19;;;;;;;13.80;10.20;;;11.40;99.90;;;;;;6239733;23;20155;-96
2022/11/01 04:26:47;;;;;;;11.90;9.57;;;11.50;99.90;;;;;;6246859;22;20139;-95
2022/11/01 04:29:13;;;;;;;13.53;9.73;;;11.40;99.90;;;;;;6276203;22;20153;-92
2022/11/01 04:31:40;;;;;;;12.83;10.00;;;11.40;99.90;;;;;;6240018;23;20305;-93
2022/11/01 04:34:06;;;;;;;14.37;9.80;;;11.40;99.90;;;;;;6235469;23;20155;-94
2022/11/01 04:36:33;;;;;;;11.83;9.93;;;11.40;99.90;;;;;;6238493;23;20180;-96
2022/11/01 04:38:59;;;;;;;11.13;8.97;;;11.30;99.90;;;;;;6231751;23;20216;-94
2022/11/01 04:41:26;;;;;;;14.17;9.70;;;11.40;99.90;;;;;;6237065;23;20157;-95
2022/11/01 04:43:54;;;;;;;10.40;8.83;;;11.40;99.90;;;;;;6241408;23;20159;-96
2022/11/01 04:46:20;;;;;;;11.50;8.70;;;11.30;99.90;;;;;;6266483;23;20143;-95
2022/11/01 04:48:46;;;;;;;10.93;8.63;;;11.30;99.90;;;;;;6236030;23;20159;-94
2022/11/01 04:51:12;;;;;;;9.90;8.10;;;11.40;99.90;;;;;;6241998;23;20141;-94
2022/11/01 04:53:38;;;;;;;7.93;7.17;;;11.40;99.90;;;;;;6275685;22;20139;-95
2022/11/01 04:56:05;;;;;;;7.63;6.83;;;11.40;99.90;;;;;;6270303;22;20210;-96
2022/11/01 04:58:35;;;;;;;8.43;7.53;;;11.30;99.90;;;;;;6263229;23;20276;-96
2022/11/01 05:01:05;;;;;;;8.47;7.57;;;11.40;99.90;;;;;;6265378;23;20215;-95
2022/11/01 05:03:34;;;;;;;8.83;7.57;;;11.30;99.90;;;;;;6237926;23;20152;-96
2022/11/01 05:06:01;;;;;;;8.53;7.50;;;11.30;99.90;;;;;;6232697;23;20172;-96
2022/11/01 05:08:27;;;;;;;8.20;7.13;;;11.40;99.90;;;;;;6236969;23;20191;-96
2022/11/01 05:10:54;;;;;;;9.90;7.43;;;11.30;99.90;;;;;;6241183;23;20159;-95
2022/11/01 05:13:21;;;;;;;8.93;6.90;;;11.40;99.90;;;;;;6274405;22;20202;-92
2022/11/01 05:15:47;;;;;;;8.37;7.43;;;11.30;99.90;;;;;;6274003;23;20143;-94
2022/11/01 05:18:12;;;;;;;9.93;7.57;;;11.30;99.90;;;;;;6238449;23;20178;-96
2022/11/01 05:20:38;;;;;;;7.43;6.63;;;11.30;99.90;;;;;;6263007;23;20147;-96
2022/11/01 05:23:05;;;;;;;8.73;7.20;;;11.20;99.90;;;;;;6236600;23;20162;-94
2022/11/01 05:25:31;;;;;;;8.13;7.07;;;11.30;99.90;;;;;;6239934;23;20165;-94
2022/11/01 05:28:07;;;;;;;9.97;7.67;;;11.20;99.90;;;;;;6237705;23;20178;-96
2022/11/01 05:30:35;;;;;;;10.27;8.17;;;11.20;99.90;;;;;;6205919;23;20211;-94
2022/11/01 05:33:03;;;;;;;12.33;8.93;;;11.20;99.90;;;;;;6212606;23;20185;-93
2022/11/01 05:35:29;;;;;;;13.93;8.03;;;11.00;99.90;;;;;;6235005;23;20151;-91
2022/11/01 05:37:57;;;;;;;9.83;8.17;;;10.90;99.90;;;;;;6232812;23;20182;-94
2022/11/01 05:40:24;;;;;;;12.57;8.40;;;10.80;99.90;;;;;;6262978;23;20609;-94
2022/11/01 05:42:50;;;;;;;9.27;7.27;;;10.80;99.90;;;;;;6235480;23;20150;-93
2022/11/01 05:45:16;;;;;;;7.97;6.93;;;10.70;99.90;;;;;;6231520;23;20155;-93
2022/11/01 05:47:42;;;;;;;7.73;6.83;;;10.70;99.90;;;;;;6227660;23;20265;-93
2022/11/01 05:50:10;;;;;;;8.53;6.97;;;10.80;99.90;;;;;;6228139;23;20205;-93
2022/11/01 05:52:38;;;;;;;9.67;7.23;;;10.80;99.90;;;;;;6225887;23;20160;-94
2022/11/01 05:55:04;;;;;;;10.47;6.73;;;10.90;99.90;;;;;;6200819;23;20156;-94
2022/11/01 05:57:30;;;;;;;11.23;7.33;;;10.80;99.90;;;;;;6224612;23;20159;-91
2022/11/01 05:59:56;;;;;;;10.87;6.80;;;10.70;99.90;;;;;;6253736;23;20656;-93
2022/11/01 06:02:22;;;;;;;8.57;7.50;;;10.70;99.90;;;;;;6226255;23;20599;-92
2022/11/01 06:04:48;;;;;;;10.97;7.30;;;10.60;99.90;;;;;;6219227;23;20143;-96
2022/11/01 06:07:14;;;;;;;9.30;7.63;;;10.70;99.90;;;;;;6235472;23;20313;-93
2022/11/01 06:09:40;;;;;;;9.50;7.27;;;10.60;99.90;;;;;;6231503;23;20156;-94
2022/11/01 06:12:06;;;;;;;8.57;7.67;;;10.60;99.90;;;;;;6238416;23;20154;-91
2022/11/01 06:14:33;;;;;;;10.10;7.73;;;10.70;99.90;;;;;;6243139;23;20163;-94
2022/11/01 06:16:58;;;;;;;12.87;8.67;;;10.80;99.90;;;;;;6210166;23;20163;-91
2022/11/01 06:19:24;;;;;;;11.97;8.50;;;10.80;99.90;;;;;;6223401;23;20195;-93
2022/11/01 06:21:50;;;;;;;15.60;8.77;;;10.80;99.90;;;;;;6224236;23;20538;-96
2022/11/01 06:24:16;;;;;;;11.50;8.13;;;10.80;99.90;;;;;;6232524;23;20152;-93
2022/11/01 06:26:42;;;;;;;12.60;9.50;;;10.90;99.90;;;;;;6226904;23;20144;-95
2022/11/01 06:29:09;;;;;;;12.47;9.13;;;10.90;99.90;;;;;;6222368;23;20155;-95
2022/11/01 06:31:38;;;;;;;12.13;9.33;;;10.90;99.90;;;;;;6218665;23;20159;-96
2022/11/01 06:34:06;;;;;;;12.57;9.70;;;11.00;99.90;;;;;;6219621;23;20508;-95
2022/11/01 06:36:32;;;;;;;14.63;9.57;;;10.90;99.90;;;;;;6220021;23;20226;-96
2022/11/01 06:38:57;;;;;;;12.27;9.57;;;10.90;99.90;;;;;;6221596;23;20187;-96
2022/11/01 06:41:23;;;;;;;13.03;9.70;;;11.00;99.90;;;;;;6231546;23;20151;-94
2022/11/01 06:43:49;;;;;;;12.03;9.60;;;11.10;99.90;;;;;;6243282;23;20139;-95
2022/11/01 06:46:15;;;;;;;12.33;9.23;;;11.10;99.90;;;;;;6244084;23;20136;-96
2022/11/01 06:48:40;;;;;;;12.90;8.90;;;11.20;99.90;;;;;;6241232;23;20152;-95
2022/11/01 06:51:07;;;;;;;12.27;8.40;;;11.30;99.90;;;;;;6240778;23;20171;-96
2022/11/01 06:53:33;;;;;;;14.03;10.40;;;11.30;99.90;;;;;;6228166;23;20165;-96
2022/11/01 06:56:00;;;;;;;12.10;9.53;;;11.30;99.90;;;;;;6223815;23;20159;-95
2022/11/01 06:58:29;;;;;;;13.47;10.47;;;11.30;99.90;;;;;;6225177;23;20177;-95
2022/11/01 07:00:54;;;;;;;13.93;10.33;;;11.40;99.90;;;;;;6223377;23;20162;-95
2022/11/01 07:03:20;;;;;;;12.53;9.63;;;11.50;99.90;;;;;;6232172;23;20187;-95
2022/11/01 07:05:48;;;;;;;12.80;9.40;;;11.50;99.90;;;;;;6238823;23;20163;-94
2022/11/01 07:08:14;;;;;;;15.37;9.50;;;11.50;99.90;;;;;;6249238;23;20197;-96
2022/11/01 07:10:41;;;;;;;12.77;8.80;;;11.50;99.90;;;;;;6255243;23;20143;-96
2022/11/01 07:13:10;;;;;;;11.57;8.80;;;11.60;99.90;;;;;;6269719;23;20147;-94
2022/11/01 07:15:35;;;;;;;10.10;8.40;;;11.60;99.90;;;;;;6234488;23;20228;-95
2022/11/01 07:18:04;;;;;;;11.20;8.50;;;11.50;99.90;;;;;;6229010;23;20160;-96
2022/11/01 07:20:39;;;;;;;15.50;9.77;;;11.50;99.90;;;;;;6227901;23;20161;-95
2022/11/01 07:23:11;;;;;;;15.80;10.67;;;11.50;99.90;;;;;;6223569;23;20202;-93
2022/11/01 07:25:37;;;;;;;15.67;10.60;;;11.70;99.90;;;;;;6222225;23;20241;-91
2022/11/01 07:28:04;;;;;;;12.50;9.47;;;11.80;99.90;;;;;;6221322;23;20474;-90
2022/11/01 07:30:30;;;;;;;15.43;10.83;;;11.80;99.90;;;;;;6248260;23;20149;-95
2022/11/01 07:32:58;;;;;;;12.07;9.77;;;11.90;99.90;;;;;;6248062;23;20145;-91
2022/11/01 07:35:25;;;;;;;15.83;11.43;;;12.00;99.90;;;;;;6221738;23;20200;-91
2022/11/01 07:37:57;;;;;;;15.50;10.33;;;12.00;99.90;;;;;;6221915;23;20158;-96
2022/11/01 07:40:26;;;;;;;12.33;9.93;;;12.00;99.90;;;;;;6266273;22;20131;-92
2022/11/01 07:42:55;;;;;;;12.87;9.40;;;12.00;99.90;;;;;;6248061;23;20139;-94
2022/11/01 07:45:21;;;;;;;11.40;9.40;;;12.00;99.90;;;;;;6232392;23;20150;-95
2022/11/01 07:47:48;;;;;;;10.20;9.10;;;11.90;99.90;;;;;;6268128;22;20154;-92
2022/11/01 07:50:14;;;;;;;13.33;10.17;;;11.80;99.90;;;;;;6270610;22;20151;-92
2022/11/01 07:52:39;;;;;;;12.60;10.20;;;11.80;99.90;;;;;;6263976;23;20147;-93
2022/11/01 07:55:06;;;;;;;13.23;9.93;;;11.80;99.90;;;;;;6253252;23;20573;-96
2022/11/01 07:57:39;;;;;;;14.40;10.33;;;11.80;99.90;;;;;;6253518;23;20166;-95
2022/11/01 08:00:06;;;;;;;12.23;9.93;;;11.70;99.90;;;;;;6254560;23;20181;-95
2022/11/01 08:02:32;;;;;;;14.67;10.17;;;11.70;99.90;;;;;;6239731;23;20135;-91
2022/11/01 08:04:58;;;;;;;14.70;10.50;;;11.80;99.90;;;;;;6269279;22;20158;-94
2022/11/01 08:07:24;;;;;;;14.00;11.60;;;11.80;99.90;;;;;;6261697;23;20209;-96
2022/11/01 08:09:50;;;;;;;13.27;10.40;;;12.00;99.90;;;;;;6255960;23;20220;-94
2022/11/01 08:12:15;;;;;;;14.47;10.33;;;12.10;99.90;;;;;;6255546;23;20174;-94
2022/11/01 08:14:41;;;;;;;12.07;10.40;;;12.10;99.90;;;;;;6227022;23;20161;-95
2022/11/01 08:17:07;;;;;;;15.60;10.50;;;12.20;99.90;;;;;;6224613;23;20201;-95
2022/11/01 08:19:33;;;;;;;11.63;10.07;;;12.20;99.90;;;;;;6259114;23;20182;-92
2022/11/01 08:21:59;;;;;;;11.93;9.30;;;12.10;99.90;;;;;;6267923;23;20143;-92
2022/11/01 08:24:26;;;;;;;15.60;10.63;;;12.20;99.90;;;;;;6258039;23;20185;-94
2022/11/01 08:26:52;;;;;;;15.37;10.30;;;12.20;99.90;;;;;;6260855;23;20143;-94
2022/11/01 08:29:48;;;;;;;13.40;9.87;;;12.30;99.90;;;;;;6236180;23;20169;-91
2022/11/01 08:32:25;;;;;;;12.13;9.00;;;12.40;99.90;;;;;;6238961;23;20138;-89
2022/11/01 08:34:51;;;;;;;12.37;9.73;;;12.50;99.90;;;;;;6242828;22;20225;-96
2022/11/01 08:37:29;;;;;;;14.80;9.37;;;12.70;99.90;;;;;;6243369;23;20155;-93
2022/11/01 08:40:02;;;;;;;11.20;8.70;;;12.90;99.90;;;;;;6237757;23;20240;-91
2022/11/01 08:43:16;;;;;;;11.20;9.07;;;13.00;99.90;;;;;;6237722;23;20182;-95
2022/11/01 08:45:53;;;;;;;10.93;9.23;;;12.90;99.90;;;;;;6234280;23;20140;-93
2022/11/01 08:48:58;;;;;;;9.73;8.23;;;12.80;99.90;;;;;;6187109;23;20191;-96
2022/11/01 08:51:32;;;;;;;9.77;8.53;;;12.80;99.90;;;;;;6196379;22;20738;-96
2022/11/01 08:53:58;;;;;;;9.73;8.40;;;12.70;99.90;;;;;;6257340;23;20143;-94
2022/11/01 08:56:26;;;;;;;10.17;9.13;;;12.70;99.90;;;;;;6225804;23;20152;-96
2022/11/01 08:58:53;;;;;;;11.00;8.70;;;12.60;99.90;;;;;;6226589;23;20207;-96
2022/11/01 09:01:20;;;;;;;10.03;8.73;;;12.60;99.90;;;;;;6239916;23;20151;-92
2022/11/01 09:03:46;;;;;;;12.13;9.53;;;12.50;99.90;;;;;;6241053;23;20151;-95
2022/11/01 09:06:12;;;;;;;11.60;9.50;;;12.50;99.90;;;;;;6235036;23;20618;-96
2022/11/01 09:08:38;;;;;;;10.27;8.90;;;12.60;99.90;;;;;;6226095;23;20165;-94
2022/11/01 09:11:05;;;;;;;11.50;8.87;;;12.80;99.90;;;;;;6223633;23;20234;-94
2022/11/01 09:13:32;;;;;;;11.80;8.60;;;12.80;99.90;;;;;;6225379;23;20212;-96
2022/11/01 09:15:57;;;;;;;10.53;8.73;;;12.80;99.90;;;;;;6252805;23;20265;-94
2022/11/01 09:18:23;;;;;;;10.20;9.20;;;12.90;99.90;;;;;;6271715;23;20170;-96
2022/11/01 09:20:56;;;;;;;10.83;8.47;;;12.90;99.90;;;;;;6274091;22;20167;-94
2022/11/01 09:23:22;;;;;;;12.53;9.97;;;13.10;99.90;;;;;;6229988;23;20204;-96
2022/11/01 09:25:48;;;;;;;9.83;8.83;;;13.10;99.90;;;;;;6254360;23;20213;-96
2022/11/01 09:28:14;;;;;;;8.97;8.07;;;13.20;99.90;;;;;;6223699;23;20240;-95
2022/11/01 09:30:41;;;;;;;9.60;8.60;;;13.20;99.90;;;;;;6223930;23;20162;-96
2022/11/01 09:33:07;;;;;;;10.87;8.13;;;13.30;99.90;;;;;;6223640;23;20162;-94
2022/11/01 09:35:34;;;;;;;9.50;8.50;;;13.30;99.90;;;;;;6223910;23;20162;-96
2022/11/01 09:38:02;;;;;;;8.33;7.53;;;13.40;99.90;;;;;;6224829;23;20158;-96
2022/11/01 09:40:36;;;;;;;8.70;7.80;;;13.50;99.90;;;;;;6224686;23;20155;-95
2022/11/01 09:43:05;;;;;;;8.43;7.53;;;13.50;99.90;;;;;;6224471;23;20155;-96
2022/11/01 09:45:35;;;;;;;8.33;7.53;;;13.50;99.90;;;;;;6225265;23;20155;-96
2022/11/01 09:48:03;;;;;;;8.47;7.67;;;13.50;99.90;;;;;;6236936;23;20238;-94
2022/11/01 09:50:33;;;;;;;8.00;7.20;;;13.40;99.90;;;;;;6257761;23;20143;-94
2022/11/01 09:53:02;;;;;;;8.80;7.80;;;13.30;99.90;;;;;;6270708;23;20188;-90
2022/11/01 09:56:08;;;;;;;7.87;7.17;;;13.10;99.90;;;;;;6269639;23;20143;-95
2022/11/01 09:58:34;;;;;;;7.67;6.97;;;12.90;99.90;;;;;;6229123;23;20630;-96
2022/11/01 10:01:27;;;;;;;8.20;7.40;;;12.90;99.90;;;;;;6252541;23;20178;-96
2022/11/01 10:04:24;;;;;;;7.97;7.27;;;12.80;99.90;;;;;;6225234;23;20155;-96
2022/11/01 10:07:01;;;;;;;7.93;7.23;;;12.80;99.90;;;;;;6224976;23;20158;-96
2022/11/01 10:09:48;;;;;;;9.93;8.03;;;12.80;99.90;;;;;;6251821;23;20622;-96
2022/11/01 10:12:35;;;;;;;8.47;7.53;;;12.70;99.90;;;;;;6226445;23;20185;-95
2022/11/01 10:15:34;;;;;;;8.07;7.37;;;12.60;99.90;;;;;;6225904;23;20182;-91
2022/11/01 10:18:25;;;;;;;7.77;7.07;;;12.60;99.90;;;;;;6228960;23;20176;-95
2022/11/01 10:20:52;;;;;;;9.50;7.93;;;12.70;99.90;;;;;;6255596;23;20178;-93
2022/11/01 10:23:51;;;;;;;9.47;7.70;;;12.80;99.90;;;;;;6237271;23;20155;-92
2022/11/01 10:26:28;;;;;;;8.57;7.77;;;12.90;99.90;;;;;;6232745;22;20163;-94
2022/11/01 10:29:41;;;;;;;8.03;7.23;;;13.00;99.90;;;;;;6224093;22;20138;-93
2022/11/01 10:32:36;;;;;;;8.63;7.73;;;13.20;99.90;;;;;;6243588;22;20150;-92
2022/11/01 10:35:14;;;;;;;9.97;7.77;;;13.30;99.90;;;;;;6182322;23;20181;-94
2022/11/01 10:37:56;;;;;;;9.47;7.70;;;13.30;99.90;;;;;;6258270;23;20143;-92
2022/11/01 10:40:35;;;;;;;8.60;7.80;;;13.50;99.90;;;;;;6249955;23;20158;-94
2022/11/01 10:43:05;;;;;;;8.37;7.57;;;13.60;99.90;;;;;;6222874;23;20151;-93
2022/11/01 10:45:30;;;;;;;8.67;7.77;;;13.60;99.90;;;;;;6220701;23;20182;-95
2022/11/01 10:47:57;;;;;;;8.90;8.00;;;13.70;99.90;;;;;;6221419;23;20162;-93
2022/11/01 10:50:26;;;;;;;9.00;8.10;;;13.70;99.90;;;;;;6257855;23;20147;-91
2022/11/01 10:52:55;;;;;;;10.27;8.33;;;13.90;99.90;;;;;;6230380;23;20218;-92
2022/11/01 10:55:40;;;;;;;12.80;9.47;;;13.90;99.90;;;;;;6237057;23;20162;-93
2022/11/01 10:58:12;;;;;;;11.33;8.87;;;14.00;99.90;;;;;;6248316;23;20155;-93
2022/11/01 11:00:40;;;;;;;13.67;10.53;;;14.10;99.90;;;;;;6228473;23;20592;-94
2022/11/01 11:03:29;;;;;;;8.87;7.80;;;14.10;99.90;;;;;;6221191;23;20152;-92
2022/11/01 11:05:59;;;;;;;9.43;7.30;;;14.20;99.90;;;;;;6221161;23;20161;-93
2022/11/01 11:08:25;;;;;;;8.63;7.70;;;14.20;99.90;;;;;;6220102;23;20171;-93
2022/11/01 11:10:52;;;;;;;10.07;9.00;;;14.30;99.90;;;;;;6219357;23;20372;-92
2022/11/01 11:13:25;;;;;;;9.30;7.80;;;14.30;99.90;;;;;;6220557;23;20238;-95
2022/11/01 11:15:53;;;;;;;8.13;7.33;;;14.30;99.90;;;;;;6195239;23;20167;-92
2022/11/01 11:18:24;;;;;;;8.40;7.60;;;14.30;99.90;;;;;;6220319;23;20182;-92
2022/11/01 11:20:59;;;;;;;8.33;7.03;;;14.30;99.90;;;;;;6195309;23;20174;-93
2022/11/01 11:23:28;;;;;;;9.23;7.17;;;14.40;99.90;;;;;;6247183;23;20157;-94
2022/11/01 11:26:07;;;;;;;7.80;7.03;;;14.40;99.90;;;;;;6219994;23;20534;-91
2022/11/01 11:28:41;;;;;;;7.60;6.77;;;14.40;99.90;;;;;;6222498;23;20590;-91
2022/11/01 11:31:42;;;;;;;10.37;7.67;;;14.50;99.90;;;;;;6220078;23;20210;-91
2022/11/01 11:34:20;;;;;;;9.13;8.20;;;14.60;99.90;;;;;;6094877;23;20165;-93
2022/11/01 11:36:52;;;;;;;8.47;7.57;;;14.60;99.90;;;;;;6071136;23;20499;-92
2022/11/01 11:39:34;;;;;;;7.70;6.93;;;14.60;99.90;;;;;;6071058;23;20516;-92
2022/11/01 11:42:17;;;;;;;7.43;6.77;;;14.70;99.90;;;;;;6079122;23;20833;-92
2022/11/01 11:44:49;;;;;;;7.47;6.77;;;14.70;99.90;;;;;;6086742;23;20535;-91
2022/11/01 11:47:18;;;;;;;7.80;6.90;;;14.80;99.90;;;;;;6072838;23;20161;-94
2022/11/01 11:49:44;;;;;;;7.80;7.00;;;14.90;99.90;;;;;;6070838;23;20155;-93
2022/11/01 11:52:16;;;;;;;7.03;6.33;;;15.00;99.90;;;;;;6070782;23;20690;-92
2022/11/01 11:54:43;;;;;;;7.40;6.67;;;15.00;99.90;;;;;;6092445;23;20162;-91
2022/11/01 11:57:25;;;;;;;9.00;7.30;;;15.10;99.90;;;;;;6065172;23;20193;-91
2022/11/01 12:00:04;;;;;;;8.40;6.80;;;15.10;99.90;;;;;;6094076;23;20244;-92
2022/11/01 12:02:36;;;;;;;13.63;7.67;;;15.20;99.90;;;;;;6070164;23;20618;-91
2022/11/01 12:05:05;;;;;;;7.00;6.17;;;15.20;99.90;;;;;;6070470;23;20266;-91
2022/11/01 12:07:49;;;;;;;6.23;5.63;;;15.30;99.90;;;;;;6107602;23;20658;-93
2022/11/01 12:10:37;;;;;;;6.07;5.47;;;15.40;99.90;;;;;;6219660;23;20144;-93
2022/11/01 12:13:32;;;;;;;6.87;5.70;;;15.40;99.90;;;;;;6221019;23;20222;-92
2022/11/01 12:16:23;;;;;;;7.60;5.70;;;15.50;99.90;;;;;;6222772;23;20147;-93
2022/11/01 12:19:01;;;;;;;5.67;5.17;;;15.60;99.90;;;;;;6229916;23;20197;-92
2022/11/01 12:21:32;;;;;;;6.97;5.70;;;15.70;99.90;;;;;;6229508;23;20173;-92
2022/11/01 12:24:17;;;;;;;9.07;6.90;;;15.80;99.90;;;;;;6242601;23;20144;-92
2022/11/01 12:26:44;;;;;;;7.20;5.53;;;15.90;99.90;;;;;;6237511;23;20143;-93
2022/11/01 12:29:34;;;;;;;8.37;7.07;;;16.10;99.90;;;;;;6221923;23;20159;-93
2022/11/01 12:32:08;;;;;;;5.50;5.03;;;16.20;99.90;;;;;;6220705;23;20155;-93
2022/11/01 12:34:37;;;;;;;5.97;5.00;;;16.30;99.90;;;;;;6225021;23;20154;-93
2022/11/01 12:37:16;;;;;;;6.17;5.10;;;16.40;99.90;;;;;;6243571;23;20169;-93
2022/11/01 12:39:45;;;;;;;4.97;4.50;;;16.50;99.90;;;;;;6251390;23;20212;-91
2022/11/01 12:42:21;;;;;;;5.40;4.90;;;16.60;99.90;;;;;;6237278;23;20158;-93
2022/11/01 12:44:52;;;;;;;5.27;4.77;;;;;;;;;;6236784;23;20158;-92
2022/11/01 12:47:24;;;;;;;9.80;7.10;;;16.70;99.90;;;;;;6234711;23;20205;-94
2022/11/01 12:50:16;;;;;;;7.40;5.63;;;16.80;99.90;;;;;;6222786;23;20170;-92
2022/11/01 12:52:48;;;;;;;6.50;5.90;;;16.80;99.90;;;;;;6221348;23;20198;-92
2022/11/01 12:55:29;;;;;;;5.00;4.60;;;16.80;99.90;;;;;;6221264;23;20154;-92
2022/11/01 12:57:55;;;;;;;4.93;4.23;;;16.90;99.90;;;;;;6220913;23;20155;-93
2022/11/01 13:00:21;;;;;;;4.47;4.10;;;16.90;99.90;;;;;;6220971;23;20274;-93
2022/11/01 13:02:56;;;;;;;3.97;3.40;;;16.90;99.90;;;;;;6221214;23;20159;-92
2022/11/01 13:05:44;;;;;;;3.67;3.37;;;17.00;99.90;;;;;;6221033;23;20234;-93
2022/11/01 13:08:34;;;;;;;4.77;3.60;;;16.90;99.90;;;;;;6241354;22;20136;-93
2022/11/01 13:11:21;;;;;;;4.40;3.77;;;16.90;99.90;;;;;;6241301;23;20151;-93
2022/11/01 13:14:09;;;;;;;3.00;2.80;;;16.90;99.90;;;;;;6232692;23;20201;-91